sensor_id;sensor_type;location;lat;lon;timestamp;P1;durP1;ratioP1;P2;durP2;ratioP2
1106;SDS011;540;49.448;8.612;2023-03-12T00:02:22;17.65;;;7.35;;
1106;SDS011;540;49.448;8.612;2023-03-12T00:04:49;17.02;;;6.55;;
1106;SDS011;540;49.448;8.612;2023-03-12T00:07:17;10.68;;;5.43;;
1106;SDS011;540;49.448;8.612;2023-03-12T00:09:45;14.00;;;6.35;;
1106;SDS011;540;49.448;8.612;2023-03-12T00:12:14;15.77;;;7.50;;
1106;SDS011;540;49.448;8.612;2023-03-12T00:14:42;13.85;;;7.55;;
1106;SDS011;540;49.448;8.612;2023-03-12T00:17:09;15.63;;;8.20;;
1106;SDS011;540;49.448;8.612;2023-03-12T00:19:37;16.80;;;7.35;;
1106;SDS011;540;49.448;8.612;2023-03-12T00:22:05;14.90;;;7.63;;
1106;SDS011;540;49.448;8.612;2023-03-12T00:24:33;15.88;;;7.22;;
1106;SDS011;540;49.448;8.612;2023-03-12T00:27:00;12.00;;;6.30;;
1106;SDS011;540;49.448;8.612;2023-03-12T00:29:29;19.55;;;7.25;;
1106;SDS011;540;49.448;8.612;2023-03-12T00:31:57;13.73;;;6.38;;
1106;SDS011;540;49.448;8.612;2023-03-12T00:34:25;13.32;;;7.13;;
1106;SDS011;540;49.448;8.612;2023-03-12T00:36:53;18.48;;;7.03;;
1106;SDS011;540;49.448;8.612;2023-03-12T00:39:20;12.85;;;5.82;;
1106;SDS011;540;49.448;8.612;2023-03-12T00:41:48;16.48;;;6.90;;
1106;SDS011;540;49.448;8.612;2023-03-12T00:44:16;15.05;;;7.18;;
1106;SDS011;540;49.448;8.612;2023-03-12T00:46:45;16.00;;;6.88;;
1106;SDS011;540;49.448;8.612;2023-03-12T00:49:13;22.23;;;7.57;;
1106;SDS011;540;49.448;8.612;2023-03-12T00:51:41;21.48;;;8.82;;
1106;SDS011;540;49.448;8.612;2023-03-12T00:54:08;16.52;;;6.97;;
1106;SDS011;540;49.448;8.612;2023-03-12T00:56:36;18.77;;;8.20;;
1106;SDS011;540;49.448;8.612;2023-03-12T00:59:04;14.85;;;6.82;;
1106;SDS011;540;49.448;8.612;2023-03-12T01:01:32;14.55;;;6.88;;
1106;SDS011;540;49.448;8.612;2023-03-12T01:04:01;11.90;;;5.95;;
1106;SDS011;540;49.448;8.612;2023-03-12T01:06:29;19.95;;;6.22;;
1106;SDS011;540;49.448;8.612;2023-03-12T01:08:57;10.60;;;5.43;;
1106;SDS011;540;49.448;8.612;2023-03-12T01:11:25;11.88;;;5.32;;
1106;SDS011;540;49.448;8.612;2023-03-12T01:13:53;16.58;;;5.68;;
1106;SDS011;540;49.448;8.612;2023-03-12T01:16:21;12.68;;;5.30;;
1106;SDS011;540;49.448;8.612;2023-03-12T01:18:53;9.63;;;5.07;;
1106;SDS011;540;49.448;8.612;2023-03-12T01:21:22;14.25;;;5.82;;
1106;SDS011;540;49.448;8.612;2023-03-12T01:23:50;12.07;;;5.68;;
1106;SDS011;540;49.448;8.612;2023-03-12T01:26:19;13.30;;;5.40;;
1106;SDS011;540;49.448;8.612;2023-03-12T01:28:46;12.43;;;5.10;;
1106;SDS011;540;49.448;8.612;2023-03-12T01:31:16;14.82;;;5.45;;
1106;SDS011;540;49.448;8.612;2023-03-12T01:33:46;10.85;;;4.60;;
1106;SDS011;540;49.448;8.612;2023-03-12T01:36:16;11.27;;;4.95;;
1106;SDS011;540;49.448;8.612;2023-03-12T01:38:46;9.68;;;4.40;;
1106;SDS011;540;49.448;8.612;2023-03-12T01:41:16;6.90;;;3.88;;
1106;SDS011;540;49.448;8.612;2023-03-12T01:43:44;15.98;;;6.50;;
1106;SDS011;540;49.448;8.612;2023-03-12T01:46:19;14.63;;;3.95;;
1106;SDS011;540;49.448;8.612;2023-03-12T01:48:56;9.57;;;4.55;;
1106;SDS011;540;49.448;8.612;2023-03-12T01:51:27;9.27;;;4.45;;
1106;SDS011;540;49.448;8.612;2023-03-12T01:54:01;9.38;;;4.30;;
1106;SDS011;540;49.448;8.612;2023-03-12T01:56:33;8.88;;;4.00;;
1106;SDS011;540;49.448;8.612;2023-03-12T01:59:06;12.07;;;4.40;;
1106;SDS011;540;49.448;8.612;2023-03-12T02:01:37;11.63;;;4.70;;
1106;SDS011;540;49.448;8.612;2023-03-12T02:04:07;7.72;;;4.25;;
1106;SDS011;540;49.448;8.612;2023-03-12T02:06:36;9.63;;;4.68;;
1106;SDS011;540;49.448;8.612;2023-03-12T02:09:10;8.88;;;4.80;;
1106;SDS011;540;49.448;8.612;2023-03-12T02:11:38;15.15;;;5.78;;
1106;SDS011;540;49.448;8.612;2023-03-12T02:14:06;10.85;;;5.07;;
1106;SDS011;540;49.448;8.612;2023-03-12T02:16:34;9.18;;;5.63;;
1106;SDS011;540;49.448;8.612;2023-03-12T02:19:02;15.90;;;6.82;;
1106;SDS011;540;49.448;8.612;2023-03-12T02:21:34;12.80;;;6.30;;
1106;SDS011;540;49.448;8.612;2023-03-12T02:24:05;19.08;;;6.80;;
1106;SDS011;540;49.448;8.612;2023-03-12T02:26:40;16.15;;;6.60;;
1106;SDS011;540;49.448;8.612;2023-03-12T02:29:08;11.35;;;5.95;;
1106;SDS011;540;49.448;8.612;2023-03-12T02:31:39;11.90;;;6.15;;
1106;SDS011;540;49.448;8.612;2023-03-12T02:34:10;13.75;;;6.85;;
1106;SDS011;540;49.448;8.612;2023-03-12T02:36:38;15.73;;;6.65;;
1106;SDS011;540;49.448;8.612;2023-03-12T02:39:06;11.55;;;7.22;;
1106;SDS011;540;49.448;8.612;2023-03-12T02:41:35;13.48;;;6.70;;
1106;SDS011;540;49.448;8.612;2023-03-12T02:44:07;13.32;;;6.47;;
1106;SDS011;540;49.448;8.612;2023-03-12T02:46:39;13.60;;;6.40;;
1106;SDS011;540;49.448;8.612;2023-03-12T02:49:08;14.05;;;5.65;;
1106;SDS011;540;49.448;8.612;2023-03-12T02:51:38;14.57;;;6.13;;
1106;SDS011;540;49.448;8.612;2023-03-12T02:54:07;10.77;;;5.32;;
1106;SDS011;540;49.448;8.612;2023-03-12T02:56:35;11.10;;;5.40;;
1106;SDS011;540;49.448;8.612;2023-03-12T02:59:03;8.52;;;4.53;;
1106;SDS011;540;49.448;8.612;2023-03-12T03:01:32;9.48;;;3.88;;
1106;SDS011;540;49.448;8.612;2023-03-12T03:04:00;10.65;;;4.85;;
1106;SDS011;540;49.448;8.612;2023-03-12T03:06:30;8.23;;;4.25;;
1106;SDS011;540;49.448;8.612;2023-03-12T03:08:58;10.73;;;4.78;;
1106;SDS011;540;49.448;8.612;2023-03-12T03:11:26;8.35;;;4.03;;
1106;SDS011;540;49.448;8.612;2023-03-12T03:13:54;10.07;;;4.07;;
1106;SDS011;540;49.448;8.612;2023-03-12T03:16:22;7.85;;;3.95;;
1106;SDS011;540;49.448;8.612;2023-03-12T03:18:51;9.23;;;4.07;;
1106;SDS011;540;49.448;8.612;2023-03-12T03:21:19;12.15;;;3.95;;
1106;SDS011;540;49.448;8.612;2023-03-12T03:23:48;8.00;;;3.70;;
1106;SDS011;540;49.448;8.612;2023-03-12T03:26:17;11.60;;;4.15;;
1106;SDS011;540;49.448;8.612;2023-03-12T03:28:47;11.10;;;4.50;;
1106;SDS011;540;49.448;8.612;2023-03-12T03:31:15;9.65;;;4.07;;
1106;SDS011;540;49.448;8.612;2023-03-12T03:33:43;6.25;;;4.20;;
1106;SDS011;540;49.448;8.612;2023-03-12T03:36:13;8.73;;;3.75;;
1106;SDS011;540;49.448;8.612;2023-03-12T03:38:41;11.57;;;4.03;;
1106;SDS011;540;49.448;8.612;2023-03-12T03:41:14;8.38;;;3.63;;
1106;SDS011;540;49.448;8.612;2023-03-12T03:43:42;8.52;;;4.15;;
1106;SDS011;540;49.448;8.612;2023-03-12T03:46:11;8.77;;;3.67;;
1106;SDS011;540;49.448;8.612;2023-03-12T03:48:39;8.30;;;4.18;;
1106;SDS011;540;49.448;8.612;2023-03-12T03:51:08;11.25;;;4.20;;
1106;SDS011;540;49.448;8.612;2023-03-12T03:53:38;9.60;;;4.32;;
1106;SDS011;540;49.448;8.612;2023-03-12T03:56:06;8.95;;;3.85;;
1106;SDS011;540;49.448;8.612;2023-03-12T03:58:35;8.30;;;3.60;;
1106;SDS011;540;49.448;8.612;2023-03-12T04:01:03;20.92;;;5.00;;
1106;SDS011;540;49.448;8.612;2023-03-12T04:03:31;8.48;;;4.28;;
1106;SDS011;540;49.448;8.612;2023-03-12T04:06:00;7.53;;;4.32;;
1106;SDS011;540;49.448;8.612;2023-03-12T04:08:30;10.55;;;3.88;;
1106;SDS011;540;49.448;8.612;2023-03-12T04:11:06;11.18;;;3.80;;
1106;SDS011;540;49.448;8.612;2023-03-12T04:13:34;6.05;;;3.58;;
1106;SDS011;540;49.448;8.612;2023-03-12T04:16:03;7.28;;;3.80;;
1106;SDS011;540;49.448;8.612;2023-03-12T04:18:31;6.22;;;3.58;;
1106;SDS011;540;49.448;8.612;2023-03-12T04:21:01;11.70;;;4.13;;
1106;SDS011;540;49.448;8.612;2023-03-12T04:23:29;8.68;;;3.78;;
1106;SDS011;540;49.448;8.612;2023-03-12T04:25:57;10.13;;;4.40;;
1106;SDS011;540;49.448;8.612;2023-03-12T04:28:26;7.88;;;4.15;;
1106;SDS011;540;49.448;8.612;2023-03-12T04:30:54;6.05;;;3.28;;
1106;SDS011;540;49.448;8.612;2023-03-12T04:33:24;7.22;;;3.72;;
1106;SDS011;540;49.448;8.612;2023-03-12T04:35:52;7.82;;;3.72;;
1106;SDS011;540;49.448;8.612;2023-03-12T04:38:20;6.13;;;3.28;;
1106;SDS011;540;49.448;8.612;2023-03-12T04:40:56;9.38;;;3.83;;
1106;SDS011;540;49.448;8.612;2023-03-12T04:43:24;10.38;;;3.55;;
1106;SDS011;540;49.448;8.612;2023-03-12T04:45:54;6.53;;;3.63;;
1106;SDS011;540;49.448;8.612;2023-03-12T04:48:23;8.32;;;3.28;;
1106;SDS011;540;49.448;8.612;2023-03-12T04:50:51;7.80;;;3.83;;
1106;SDS011;540;49.448;8.612;2023-03-12T04:53:19;7.13;;;4.32;;
1106;SDS011;540;49.448;8.612;2023-03-12T04:55:47;5.28;;;2.88;;
1106;SDS011;540;49.448;8.612;2023-03-12T04:58:15;5.05;;;3.42;;
1106;SDS011;540;49.448;8.612;2023-03-12T05:00:45;5.70;;;3.55;;
1106;SDS011;540;49.448;8.612;2023-03-12T05:03:14;5.35;;;2.63;;
1106;SDS011;540;49.448;8.612;2023-03-12T05:05:43;4.32;;;2.38;;
1106;SDS011;540;49.448;8.612;2023-03-12T05:08:10;5.15;;;2.45;;
1106;SDS011;540;49.448;8.612;2023-03-12T05:10:38;5.55;;;2.50;;
1106;SDS011;540;49.448;8.612;2023-03-12T05:13:11;9.88;;;2.80;;
1106;SDS011;540;49.448;8.612;2023-03-12T05:15:40;8.35;;;2.90;;
1106;SDS011;540;49.448;8.612;2023-03-12T05:18:09;5.47;;;2.30;;
1106;SDS011;540;49.448;8.612;2023-03-12T05:20:37;5.90;;;2.75;;
1106;SDS011;540;49.448;8.612;2023-03-12T05:23:05;4.22;;;2.25;;
1106;SDS011;540;49.448;8.612;2023-03-12T05:25:33;4.88;;;2.65;;
1106;SDS011;540;49.448;8.612;2023-03-12T05:28:04;7.40;;;2.80;;
1106;SDS011;540;49.448;8.612;2023-03-12T05:30:31;5.80;;;3.10;;
1106;SDS011;540;49.448;8.612;2023-03-12T05:32:59;9.57;;;2.90;;
1106;SDS011;540;49.448;8.612;2023-03-12T05:35:28;10.73;;;2.80;;
1106;SDS011;540;49.448;8.612;2023-03-12T05:37:56;9.50;;;3.28;;
1106;SDS011;540;49.448;8.612;2023-03-12T05:40:24;8.00;;;2.65;;
1106;SDS011;540;49.448;8.612;2023-03-12T05:42:51;7.95;;;2.42;;
1106;SDS011;540;49.448;8.612;2023-03-12T05:45:19;7.28;;;2.85;;
1106;SDS011;540;49.448;8.612;2023-03-12T05:47:47;3.35;;;2.13;;
1106;SDS011;540;49.448;8.612;2023-03-12T05:50:15;5.65;;;2.53;;
1106;SDS011;540;49.448;8.612;2023-03-12T05:52:44;6.47;;;2.65;;
1106;SDS011;540;49.448;8.612;2023-03-12T05:55:12;8.13;;;2.85;;
1106;SDS011;540;49.448;8.612;2023-03-12T05:57:40;11.07;;;3.10;;
1106;SDS011;540;49.448;8.612;2023-03-12T06:00:08;9.80;;;2.88;;
1106;SDS011;540;49.448;8.612;2023-03-12T06:02:39;10.00;;;3.15;;
1106;SDS011;540;49.448;8.612;2023-03-12T06:05:08;7.68;;;3.05;;
1106;SDS011;540;49.448;8.612;2023-03-12T06:07:36;9.05;;;3.03;;
1106;SDS011;540;49.448;8.612;2023-03-12T06:10:05;9.25;;;2.95;;
1106;SDS011;540;49.448;8.612;2023-03-12T06:12:34;15.02;;;3.17;;
1106;SDS011;540;49.448;8.612;2023-03-12T06:15:02;8.52;;;3.03;;
1106;SDS011;540;49.448;8.612;2023-03-12T06:17:30;11.13;;;3.15;;
1106;SDS011;540;49.448;8.612;2023-03-12T06:19:58;10.05;;;3.08;;
1106;SDS011;540;49.448;8.612;2023-03-12T06:22:26;6.22;;;2.72;;
1106;SDS011;540;49.448;8.612;2023-03-12T06:24:55;6.28;;;2.55;;
1106;SDS011;540;49.448;8.612;2023-03-12T06:27:24;9.13;;;3.50;;
1106;SDS011;540;49.448;8.612;2023-03-12T06:29:52;7.63;;;3.80;;
1106;SDS011;540;49.448;8.612;2023-03-12T06:32:20;7.28;;;3.40;;
1106;SDS011;540;49.448;8.612;2023-03-12T06:34:47;8.40;;;3.40;;
1106;SDS011;540;49.448;8.612;2023-03-12T06:37:15;11.23;;;5.78;;
1106;SDS011;540;49.448;8.612;2023-03-12T06:39:43;19.02;;;7.20;;
1106;SDS011;540;49.448;8.612;2023-03-12T06:42:10;13.55;;;5.85;;
1106;SDS011;540;49.448;8.612;2023-03-12T06:44:41;11.32;;;4.68;;
1106;SDS011;540;49.448;8.612;2023-03-12T06:47:09;10.90;;;4.55;;
1106;SDS011;540;49.448;8.612;2023-03-12T06:49:36;12.43;;;4.18;;
1106;SDS011;540;49.448;8.612;2023-03-12T06:52:04;15.50;;;5.10;;
1106;SDS011;540;49.448;8.612;2023-03-12T06:54:32;10.43;;;4.95;;
1106;SDS011;540;49.448;8.612;2023-03-12T06:57:00;10.32;;;4.20;;
1106;SDS011;540;49.448;8.612;2023-03-12T06:59:28;19.33;;;4.82;;
1106;SDS011;540;49.448;8.612;2023-03-12T07:01:57;15.38;;;5.03;;
1106;SDS011;540;49.448;8.612;2023-03-12T07:04:25;10.80;;;5.03;;
1106;SDS011;540;49.448;8.612;2023-03-12T07:06:53;12.55;;;5.40;;
1106;SDS011;540;49.448;8.612;2023-03-12T07:09:21;7.40;;;4.82;;
1106;SDS011;540;49.448;8.612;2023-03-12T07:11:48;11.05;;;5.40;;
1106;SDS011;540;49.448;8.612;2023-03-12T07:14:16;8.48;;;4.60;;
1106;SDS011;540;49.448;8.612;2023-03-12T07:16:45;12.23;;;5.25;;
1106;SDS011;540;49.448;8.612;2023-03-12T07:19:14;13.40;;;5.28;;
1106;SDS011;540;49.448;8.612;2023-03-12T07:21:44;9.40;;;5.28;;
1106;SDS011;540;49.448;8.612;2023-03-12T07:24:12;12.93;;;6.75;;
1106;SDS011;540;49.448;8.612;2023-03-12T07:26:39;9.98;;;4.40;;
1106;SDS011;540;49.448;8.612;2023-03-12T07:29:08;12.30;;;5.68;;
1106;SDS011;540;49.448;8.612;2023-03-12T07:31:36;16.70;;;7.55;;
1106;SDS011;540;49.448;8.612;2023-03-12T07:34:04;12.80;;;5.38;;
1106;SDS011;540;49.448;8.612;2023-03-12T07:36:33;11.18;;;5.53;;
1106;SDS011;540;49.448;8.612;2023-03-12T07:39:01;8.57;;;4.82;;
1106;SDS011;540;49.448;8.612;2023-03-12T07:41:29;16.17;;;5.65;;
1106;SDS011;540;49.448;8.612;2023-03-12T07:43:57;16.15;;;6.50;;
1106;SDS011;540;49.448;8.612;2023-03-12T07:46:25;16.00;;;6.45;;
1106;SDS011;540;49.448;8.612;2023-03-12T07:48:53;11.32;;;6.57;;
1106;SDS011;540;49.448;8.612;2023-03-12T07:51:21;11.68;;;6.60;;
1106;SDS011;540;49.448;8.612;2023-03-12T07:53:50;12.07;;;6.25;;
1106;SDS011;540;49.448;8.612;2023-03-12T07:56:17;9.07;;;5.93;;
1106;SDS011;540;49.448;8.612;2023-03-12T07:58:45;10.40;;;6.15;;
1106;SDS011;540;49.448;8.612;2023-03-12T08:01:13;12.85;;;6.40;;
1106;SDS011;540;49.448;8.612;2023-03-12T08:03:41;10.30;;;6.43;;
1106;SDS011;540;49.448;8.612;2023-03-12T08:06:10;14.27;;;6.93;;
1106;SDS011;540;49.448;8.612;2023-03-12T08:08:38;12.48;;;6.28;;
1106;SDS011;540;49.448;8.612;2023-03-12T08:11:08;14.07;;;7.63;;
1106;SDS011;540;49.448;8.612;2023-03-12T08:13:36;19.25;;;7.53;;
1106;SDS011;540;49.448;8.612;2023-03-12T08:16:04;16.02;;;7.28;;
1106;SDS011;540;49.448;8.612;2023-03-12T08:18:34;15.18;;;8.52;;
1106;SDS011;540;49.448;8.612;2023-03-12T08:21:02;13.93;;;6.60;;
1106;SDS011;540;49.448;8.612;2023-03-12T08:23:30;14.75;;;7.22;;
1106;SDS011;540;49.448;8.612;2023-03-12T08:25:58;14.93;;;7.63;;
1106;SDS011;540;49.448;8.612;2023-03-12T08:28:27;15.00;;;6.80;;
1106;SDS011;540;49.448;8.612;2023-03-12T08:30:57;12.05;;;5.78;;
1106;SDS011;540;49.448;8.612;2023-03-12T08:33:26;15.50;;;6.43;;
1106;SDS011;540;49.448;8.612;2023-03-12T08:35:54;12.52;;;7.57;;
1106;SDS011;540;49.448;8.612;2023-03-12T08:38:22;17.40;;;7.00;;
1106;SDS011;540;49.448;8.612;2023-03-12T08:40:53;16.48;;;7.82;;
1106;SDS011;540;49.448;8.612;2023-03-12T08:43:22;10.27;;;6.35;;
1106;SDS011;540;49.448;8.612;2023-03-12T08:45:53;14.77;;;6.50;;
1106;SDS011;540;49.448;8.612;2023-03-12T08:48:21;13.82;;;7.25;;
1106;SDS011;540;49.448;8.612;2023-03-12T08:50:49;14.68;;;6.65;;
1106;SDS011;540;49.448;8.612;2023-03-12T08:53:17;14.15;;;6.20;;
1106;SDS011;540;49.448;8.612;2023-03-12T08:55:45;12.85;;;6.35;;
1106;SDS011;540;49.448;8.612;2023-03-12T08:58:13;13.45;;;6.30;;
1106;SDS011;540;49.448;8.612;2023-03-12T09:00:41;14.15;;;6.32;;
1106;SDS011;540;49.448;8.612;2023-03-12T09:03:12;13.65;;;6.45;;
1106;SDS011;540;49.448;8.612;2023-03-12T09:05:41;11.82;;;5.50;;
1106;SDS011;540;49.448;8.612;2023-03-12T09:08:12;10.18;;;5.22;;
1106;SDS011;540;49.448;8.612;2023-03-12T09:10:46;10.65;;;5.15;;
1106;SDS011;540;49.448;8.612;2023-03-12T09:13:16;11.18;;;5.70;;
1106;SDS011;540;49.448;8.612;2023-03-12T09:15:45;11.05;;;4.80;;
1106;SDS011;540;49.448;8.612;2023-03-12T09:18:16;17.13;;;5.25;;
1106;SDS011;540;49.448;8.612;2023-03-12T09:20:47;15.50;;;5.30;;
1106;SDS011;540;49.448;8.612;2023-03-12T09:23:16;18.35;;;5.40;;
1106;SDS011;540;49.448;8.612;2023-03-12T09:25:46;12.63;;;5.97;;
1106;SDS011;540;49.448;8.612;2023-03-12T09:28:16;14.73;;;5.20;;
1106;SDS011;540;49.448;8.612;2023-03-12T09:30:46;11.35;;;5.10;;
1106;SDS011;540;49.448;8.612;2023-03-12T09:33:20;13.18;;;5.22;;
1106;SDS011;540;49.448;8.612;2023-03-12T09:35:54;24.38;;;10.90;;
1106;SDS011;540;49.448;8.612;2023-03-12T09:38:24;12.98;;;6.45;;
1106;SDS011;540;49.448;8.612;2023-03-12T09:40:54;15.32;;;5.93;;
1106;SDS011;540;49.448;8.612;2023-03-12T09:43:24;12.90;;;6.60;;
1106;SDS011;540;49.448;8.612;2023-03-12T09:46:00;9.63;;;5.50;;
1106;SDS011;540;49.448;8.612;2023-03-12T09:48:33;23.70;;;8.07;;
1106;SDS011;540;49.448;8.612;2023-03-12T09:51:05;11.73;;;6.07;;
1106;SDS011;540;49.448;8.612;2023-03-12T09:56:13;10.02;;;5.50;;
1106;SDS011;540;49.448;8.612;2023-03-12T09:58:44;18.60;;;8.35;;
1106;SDS011;540;49.448;8.612;2023-03-12T10:01:18;11.90;;;6.50;;
1106;SDS011;540;49.448;8.612;2023-03-12T10:04:10;15.13;;;6.93;;
1106;SDS011;540;49.448;8.612;2023-03-12T10:06:55;13.07;;;6.90;;
1106;SDS011;540;49.448;8.612;2023-03-12T10:09:34;16.25;;;7.53;;
1106;SDS011;540;49.448;8.612;2023-03-12T10:12:28;13.68;;;8.23;;
1106;SDS011;540;49.448;8.612;2023-03-12T10:15:06;13.85;;;7.78;;
1106;SDS011;540;49.448;8.612;2023-03-12T10:17:46;20.25;;;7.68;;
1106;SDS011;540;49.448;8.612;2023-03-12T10:20:28;11.25;;;6.75;;
1106;SDS011;540;49.448;8.612;2023-03-12T10:23:09;19.45;;;8.55;;
1106;SDS011;540;49.448;8.612;2023-03-12T10:25:40;14.27;;;7.85;;
1106;SDS011;540;49.448;8.612;2023-03-12T10:28:14;22.33;;;9.13;;
1106;SDS011;540;49.448;8.612;2023-03-12T10:30:45;16.35;;;8.45;;
1106;SDS011;540;49.448;8.612;2023-03-12T10:33:18;13.82;;;7.70;;
1106;SDS011;540;49.448;8.612;2023-03-12T10:35:48;16.75;;;8.50;;
1106;SDS011;540;49.448;8.612;2023-03-12T10:38:19;14.60;;;8.40;;
1106;SDS011;540;49.448;8.612;2023-03-12T10:40:52;17.35;;;8.68;;
1106;SDS011;540;49.448;8.612;2023-03-12T10:43:20;21.50;;;9.35;;
1106;SDS011;540;49.448;8.612;2023-03-12T10:45:51;17.30;;;8.23;;
1106;SDS011;540;49.448;8.612;2023-03-12T10:48:27;14.25;;;8.10;;
1106;SDS011;540;49.448;8.612;2023-03-12T10:51:01;14.00;;;7.13;;
1106;SDS011;540;49.448;8.612;2023-03-12T10:53:30;15.02;;;8.57;;
1106;SDS011;540;49.448;8.612;2023-03-12T10:56:01;11.23;;;7.57;;
1106;SDS011;540;49.448;8.612;2023-03-12T10:58:32;10.23;;;6.90;;
1106;SDS011;540;49.448;8.612;2023-03-12T11:01:02;15.23;;;7.88;;
1106;SDS011;540;49.448;8.612;2023-03-12T11:03:33;12.65;;;8.60;;
1106;SDS011;540;49.448;8.612;2023-03-12T11:06:02;18.63;;;9.95;;
1106;SDS011;540;49.448;8.612;2023-03-12T11:08:33;15.93;;;8.82;;
1106;SDS011;540;49.448;8.612;2023-03-12T11:11:03;11.90;;;7.70;;
1106;SDS011;540;49.448;8.612;2023-03-12T11:13:32;16.83;;;8.55;;
1106;SDS011;540;49.448;8.612;2023-03-12T11:16:01;11.23;;;7.72;;
1106;SDS011;540;49.448;8.612;2023-03-12T11:18:31;15.90;;;8.52;;
1106;SDS011;540;49.448;8.612;2023-03-12T11:21:12;12.40;;;7.60;;
1106;SDS011;540;49.448;8.612;2023-03-12T11:23:44;14.07;;;8.23;;
1106;SDS011;540;49.448;8.612;2023-03-12T11:26:30;14.15;;;7.13;;
1106;SDS011;540;49.448;8.612;2023-03-12T11:29:04;15.80;;;9.70;;
1106;SDS011;540;49.448;8.612;2023-03-12T11:31:40;15.25;;;7.80;;
1106;SDS011;540;49.448;8.612;2023-03-12T11:34:13;15.98;;;7.82;;
1106;SDS011;540;49.448;8.612;2023-03-12T11:36:50;18.67;;;8.27;;
1106;SDS011;540;49.448;8.612;2023-03-12T11:41:58;15.23;;;7.60;;
1106;SDS011;540;49.448;8.612;2023-03-12T11:44:44;12.93;;;7.22;;
1106;SDS011;540;49.448;8.612;2023-03-12T11:47:26;12.43;;;7.45;;
1106;SDS011;540;49.448;8.612;2023-03-12T11:50:17;16.02;;;7.45;;
1106;SDS011;540;49.448;8.612;2023-03-12T11:53:01;11.88;;;7.30;;
1106;SDS011;540;49.448;8.612;2023-03-12T11:55:56;11.57;;;7.10;;
1106;SDS011;540;49.448;8.612;2023-03-12T11:58:41;10.50;;;6.32;;
1106;SDS011;540;49.448;8.612;2023-03-12T12:01:20;9.02;;;5.55;;
1106;SDS011;540;49.448;8.612;2023-03-12T12:03:59;8.80;;;5.63;;
1106;SDS011;540;49.448;8.612;2023-03-12T12:06:47;10.60;;;6.00;;
1106;SDS011;540;49.448;8.612;2023-03-12T12:09:26;11.05;;;6.13;;
1106;SDS011;540;49.448;8.612;2023-03-12T12:12:05;9.88;;;5.75;;
1106;SDS011;540;49.448;8.612;2023-03-12T12:14:50;10.23;;;6.22;;
1106;SDS011;540;49.448;8.612;2023-03-12T12:17:31;9.43;;;6.20;;
1106;SDS011;540;49.448;8.612;2023-03-12T12:20:18;9.30;;;6.07;;
1106;SDS011;540;49.448;8.612;2023-03-12T12:22:55;11.85;;;6.57;;
1106;SDS011;540;49.448;8.612;2023-03-12T12:25:36;8.48;;;6.18;;
1106;SDS011;540;49.448;8.612;2023-03-12T12:28:48;8.20;;;6.03;;
1106;SDS011;540;49.448;8.612;2023-03-12T12:31:32;10.07;;;5.82;;
1106;SDS011;540;49.448;8.612;2023-03-12T12:34:27;12.40;;;6.85;;
1106;SDS011;540;49.448;8.612;2023-03-12T12:37:18;8.65;;;5.20;;
1106;SDS011;540;49.448;8.612;2023-03-12T12:39:52;8.07;;;5.75;;
1106;SDS011;540;49.448;8.612;2023-03-12T12:42:29;10.30;;;5.68;;
1106;SDS011;540;49.448;8.612;2023-03-12T12:44:59;9.55;;;6.05;;
1106;SDS011;540;49.448;8.612;2023-03-12T12:47:33;9.10;;;5.38;;
1106;SDS011;540;49.448;8.612;2023-03-12T12:50:06;6.68;;;5.40;;
1106;SDS011;540;49.448;8.612;2023-03-12T12:52:41;9.18;;;5.45;;
1106;SDS011;540;49.448;8.612;2023-03-12T12:55:11;8.85;;;5.32;;
1106;SDS011;540;49.448;8.612;2023-03-12T12:57:48;9.68;;;5.68;;
1106;SDS011;540;49.448;8.612;2023-03-12T13:00:28;7.70;;;5.27;;
1106;SDS011;540;49.448;8.612;2023-03-12T13:03:13;12.63;;;5.40;;
1106;SDS011;540;49.448;8.612;2023-03-12T13:05:54;11.52;;;6.50;;
1106;SDS011;540;49.448;8.612;2023-03-12T13:08:33;10.07;;;6.00;;
1106;SDS011;540;49.448;8.612;2023-03-12T13:11:22;8.38;;;5.10;;
1106;SDS011;540;49.448;8.612;2023-03-12T13:14:10;6.72;;;5.13;;
1106;SDS011;540;49.448;8.612;2023-03-12T13:16:46;11.63;;;5.70;;
1106;SDS011;540;49.448;8.612;2023-03-12T13:19:22;19.40;;;8.15;;
1106;SDS011;540;49.448;8.612;2023-03-12T13:21:56;7.90;;;6.10;;
1106;SDS011;540;49.448;8.612;2023-03-12T13:24:34;11.18;;;5.75;;
1106;SDS011;540;49.448;8.612;2023-03-12T13:27:11;8.70;;;6.15;;
1106;SDS011;540;49.448;8.612;2023-03-12T13:29:46;9.93;;;6.35;;
1106;SDS011;540;49.448;8.612;2023-03-12T13:32:36;10.82;;;6.35;;
1106;SDS011;540;49.448;8.612;2023-03-12T13:35:31;9.00;;;5.53;;
1106;SDS011;540;49.448;8.612;2023-03-12T13:38:03;9.75;;;6.55;;
1106;SDS011;540;49.448;8.612;2023-03-12T13:40:37;9.20;;;6.20;;
1106;SDS011;540;49.448;8.612;2023-03-12T13:43:10;12.38;;;6.22;;
1106;SDS011;540;49.448;8.612;2023-03-12T13:45:53;12.57;;;6.15;;
1106;SDS011;540;49.448;8.612;2023-03-12T13:48:24;10.02;;;6.00;;
1106;SDS011;540;49.448;8.612;2023-03-12T13:50:53;15.07;;;6.22;;
1106;SDS011;540;49.448;8.612;2023-03-12T13:53:23;11.85;;;5.05;;
1106;SDS011;540;49.448;8.612;2023-03-12T13:56:00;6.72;;;4.15;;
1106;SDS011;540;49.448;8.612;2023-03-12T13:58:30;9.30;;;4.15;;
1106;SDS011;540;49.448;8.612;2023-03-12T14:01:06;12.95;;;2.63;;
1106;SDS011;540;49.448;8.612;2023-03-12T14:03:42;6.10;;;1.73;;
1106;SDS011;540;49.448;8.612;2023-03-12T14:06:13;12.90;;;3.58;;
1106;SDS011;540;49.448;8.612;2023-03-12T14:08:53;7.38;;;2.20;;
1106;SDS011;540;49.448;8.612;2023-03-12T14:11:35;9.93;;;2.40;;
1106;SDS011;540;49.448;8.612;2023-03-12T14:17:13;5.35;;;2.42;;
1106;SDS011;540;49.448;8.612;2023-03-12T14:19:45;12.00;;;3.22;;
1106;SDS011;540;49.448;8.612;2023-03-12T14:22:14;11.35;;;3.05;;
1106;SDS011;540;49.448;8.612;2023-03-12T14:24:47;7.70;;;1.75;;
1106;SDS011;540;49.448;8.612;2023-03-12T14:27:20;8.68;;;1.90;;
1106;SDS011;540;49.448;8.612;2023-03-12T14:29:54;13.68;;;2.97;;
1106;SDS011;540;49.448;8.612;2023-03-12T14:32:27;12.68;;;3.03;;
1106;SDS011;540;49.448;8.612;2023-03-12T14:34:58;10.30;;;2.17;;
1106;SDS011;540;49.448;8.612;2023-03-12T14:37:35;15.25;;;2.40;;
1106;SDS011;540;49.448;8.612;2023-03-12T14:40:07;8.80;;;2.08;;
1106;SDS011;540;49.448;8.612;2023-03-12T14:42:47;14.55;;;2.17;;
1106;SDS011;540;49.448;8.612;2023-03-12T14:45:16;10.52;;;2.47;;
1106;SDS011;540;49.448;8.612;2023-03-12T14:47:47;8.25;;;1.88;;
1106;SDS011;540;49.448;8.612;2023-03-12T14:50:20;10.52;;;2.33;;
1106;SDS011;540;49.448;8.612;2023-03-12T14:52:49;6.63;;;2.10;;
1106;SDS011;540;49.448;8.612;2023-03-12T14:55:18;11.48;;;2.00;;
1106;SDS011;540;49.448;8.612;2023-03-12T14:57:47;11.30;;;3.05;;
1106;SDS011;540;49.448;8.612;2023-03-12T15:00:22;11.55;;;2.50;;
1106;SDS011;540;49.448;8.612;2023-03-12T15:02:53;11.57;;;2.53;;
1106;SDS011;540;49.448;8.612;2023-03-12T15:05:23;8.25;;;2.70;;
1106;SDS011;540;49.448;8.612;2023-03-12T15:07:53;11.52;;;2.70;;
1106;SDS011;540;49.448;8.612;2023-03-12T15:10:24;13.60;;;2.78;;
1106;SDS011;540;49.448;8.612;2023-03-12T15:12:55;9.95;;;2.13;;
1106;SDS011;540;49.448;8.612;2023-03-12T15:15:27;11.85;;;2.70;;
1106;SDS011;540;49.448;8.612;2023-03-12T15:18:02;13.15;;;3.83;;
1106;SDS011;540;49.448;8.612;2023-03-12T15:20:32;14.32;;;3.42;;
1106;SDS011;540;49.448;8.612;2023-03-12T15:23:01;14.82;;;2.65;;
1106;SDS011;540;49.448;8.612;2023-03-12T15:25:31;13.40;;;2.50;;
1106;SDS011;540;49.448;8.612;2023-03-12T15:28:02;12.85;;;3.05;;
1106;SDS011;540;49.448;8.612;2023-03-12T15:30:31;20.10;;;3.38;;
1106;SDS011;540;49.448;8.612;2023-03-12T15:33:09;10.52;;;2.40;;
1106;SDS011;540;49.448;8.612;2023-03-12T15:35:39;10.70;;;2.60;;
1106;SDS011;540;49.448;8.612;2023-03-12T15:38:15;15.98;;;2.83;;
1106;SDS011;540;49.448;8.612;2023-03-12T15:40:47;9.70;;;2.80;;
1106;SDS011;540;49.448;8.612;2023-03-12T15:43:16;20.33;;;3.50;;
1106;SDS011;540;49.448;8.612;2023-03-12T15:45:46;20.48;;;3.20;;
1106;SDS011;540;49.448;8.612;2023-03-12T15:48:24;12.25;;;2.92;;
1106;SDS011;540;49.448;8.612;2023-03-12T15:50:54;13.98;;;3.63;;
1106;SDS011;540;49.448;8.612;2023-03-12T15:53:24;9.07;;;2.88;;
1106;SDS011;540;49.448;8.612;2023-03-12T15:55:59;16.65;;;3.25;;